sensor_id;sensor_type;location;lat;lon;timestamp;temperature;humidity
56123;DHT22;42426;46.104;19.656;2024-02-15T00:01:04;153.70;2252.80
56123;DHT22;42426;46.104;19.656;2024-02-15T00:03:32;153.80;2252.80
56123;DHT22;42426;46.104;19.656;2024-02-15T00:05:58;153.80;2252.80
56123;DHT22;42426;46.104;19.656;2024-02-15T00:08:25;153.90;2252.80
56123;DHT22;42426;46.104;19.656;2024-02-15T00:10:52;153.90;2252.80
56123;DHT22;42426;46.104;19.656;2024-02-15T00:13:19;153.90;2252.80
56123;DHT22;42426;46.104;19.656;2024-02-15T00:15:45;153.90;2252.80
56123;DHT22;42426;46.104;19.656;2024-02-15T00:18:14;153.90;2252.80
56123;DHT22;42426;46.104;19.656;2024-02-15T00:20:40;154.00;2252.80
56123;DHT22;42426;46.104;19.656;2024-02-15T00:23:05;154.00;2252.80
56123;DHT22;42426;46.104;19.656;2024-02-15T00:25:32;154.00;2252.80
56123;DHT22;42426;46.104;19.656;2024-02-15T00:27:58;154.00;2252.80
56123;DHT22;42426;46.104;19.656;2024-02-15T00:30:30;154.10;2252.80
56123;DHT22;42426;46.104;19.656;2024-02-15T00:32:57;154.00;2252.80
56123;DHT22;42426;46.104;19.656;2024-02-15T00:35:22;154.00;2252.80
56123;DHT22;42426;46.104;19.656;2024-02-15T00:37:48;154.00;2252.80
56123;DHT22;42426;46.104;19.656;2024-02-15T00:40:15;153.90;2252.80
56123;DHT22;42426;46.104;19.656;2024-02-15T00:42:41;153.90;2252.80
56123;DHT22;42426;46.104;19.656;2024-02-15T00:45:07;154.00;2252.80
56123;DHT22;42426;46.104;19.656;2024-02-15T00:47:36;154.00;2252.80
56123;DHT22;42426;46.104;19.656;2024-02-15T00:50:03;154.00;2252.80
56123;DHT22;42426;46.104;19.656;2024-02-15T00:52:29;154.00;2252.80
56123;DHT22;42426;46.104;19.656;2024-02-15T00:54:56;154.00;2252.80
56123;DHT22;42426;46.104;19.656;2024-02-15T00:57:22;154.00;2252.80
56123;DHT22;42426;46.104;19.656;2024-02-15T00:59:48;154.00;2252.80
56123;DHT22;42426;46.104;19.656;2024-02-15T01:02:14;154.00;2252.80
56123;DHT22;42426;46.104;19.656;2024-02-15T01:04:40;154.00;2252.80
56123;DHT22;42426;46.104;19.656;2024-02-15T01:07:08;154.00;2252.80
56123;DHT22;42426;46.104;19.656;2024-02-15T01:09:34;154.10;2252.80
56123;DHT22;42426;46.104;19.656;2024-02-15T01:11:59;154.10;2252.80
56123;DHT22;42426;46.104;19.656;2024-02-15T01:14:25;154.10;2252.80
56123;DHT22;42426;46.104;19.656;2024-02-15T01:16:55;154.10;2252.80
56123;DHT22;42426;46.104;19.656;2024-02-15T01:19:21;154.00;2252.80
56123;DHT22;42426;46.104;19.656;2024-02-15T01:21:46;154.10;2252.80
56123;DHT22;42426;46.104;19.656;2024-02-15T01:24:12;154.10;2252.80
56123;DHT22;42426;46.104;19.656;2024-02-15T01:26:38;154.10;2252.80
56123;DHT22;42426;46.104;19.656;2024-02-15T01:29:04;154.10;2252.80
56123;DHT22;42426;46.104;19.656;2024-02-15T01:31:30;154.10;2252.80
56123;DHT22;42426;46.104;19.656;2024-02-15T01:33:56;154.10;2252.80
56123;DHT22;42426;46.104;19.656;2024-02-15T01:36:22;154.10;2252.80
56123;DHT22;42426;46.104;19.656;2024-02-15T01:38:49;154.10;2252.80
56123;DHT22;42426;46.104;19.656;2024-02-15T01:41:15;154.00;2252.80
56123;DHT22;42426;46.104;19.656;2024-02-15T01:43:44;153.90;2252.80
56123;DHT22;42426;46.104;19.656;2024-02-15T01:46:11;154.00;2252.80
56123;DHT22;42426;46.104;19.656;2024-02-15T01:48:37;154.00;2252.80
56123;DHT22;42426;46.104;19.656;2024-02-15T01:51:07;154.00;2252.80
56123;DHT22;42426;46.104;19.656;2024-02-15T01:53:33;153.90;2252.80
56123;DHT22;42426;46.104;19.656;2024-02-15T01:56:00;154.00;2252.80
56123;DHT22;42426;46.104;19.656;2024-02-15T01:58:26;154.00;2252.80
56123;DHT22;42426;46.104;19.656;2024-02-15T02:00:53;154.00;2252.80
56123;DHT22;42426;46.104;19.656;2024-02-15T02:03:22;153.90;2252.80
56123;DHT22;42426;46.104;19.656;2024-02-15T02:05:48;153.90;2252.80
56123;DHT22;42426;46.104;19.656;2024-02-15T02:08:14;153.90;2252.80
56123;DHT22;42426;46.104;19.656;2024-02-15T02:10:40;153.90;2252.80
56123;DHT22;42426;46.104;19.656;2024-02-15T02:13:06;153.90;2252.80
56123;DHT22;42426;46.104;19.656;2024-02-15T02:15:32;153.90;2252.80
56123;DHT22;42426;46.104;19.656;2024-02-15T02:18:00;153.90;2252.80
56123;DHT22;42426;46.104;19.656;2024-02-15T02:20:26;153.90;2252.80
56123;DHT22;42426;46.104;19.656;2024-02-15T02:22:53;153.80;2252.80
56123;DHT22;42426;46.104;19.656;2024-02-15T02:25:25;153.80;2252.80
56123;DHT22;42426;46.104;19.656;2024-02-15T02:27:55;153.80;2252.80
56123;DHT22;42426;46.104;19.656;2024-02-15T02:30:22;153.80;2252.80
56123;DHT22;42426;46.104;19.656;2024-02-15T02:32:48;153.80;2252.80
56123;DHT22;42426;46.104;19.656;2024-02-15T02:35:14;153.80;2252.80
56123;DHT22;42426;46.104;19.656;2024-02-15T02:37:42;153.80;2252.80
56123;DHT22;42426;46.104;19.656;2024-02-15T02:40:08;153.70;2252.80
56123;DHT22;42426;46.104;19.656;2024-02-15T02:42:53;153.70;2252.80
56123;DHT22;42426;46.104;19.656;2024-02-15T02:45:19;153.80;2252.80
56123;DHT22;42426;46.104;19.656;2024-02-15T02:47:50;153.70;2252.80
56123;DHT22;42426;46.104;19.656;2024-02-15T02:50:17;153.70;2252.80
56123;DHT22;42426;46.104;19.656;2024-02-15T02:52:43;153.70;2252.80
56123;DHT22;42426;46.104;19.656;2024-02-15T02:55:10;153.80;2252.80
56123;DHT22;42426;46.104;19.656;2024-02-15T02:57:37;153.70;2252.80
56123;DHT22;42426;46.104;19.656;2024-02-15T03:00:04;153.70;2252.80
56123;DHT22;42426;46.104;19.656;2024-02-15T03:02:32;153.70;2252.80
56123;DHT22;42426;46.104;19.656;2024-02-15T03:04:58;153.70;2252.80
56123;DHT22;42426;46.104;19.656;2024-02-15T03:07:27;153.80;2252.80
56123;DHT22;42426;46.104;19.656;2024-02-15T03:09:53;153.70;2252.80
56123;DHT22;42426;46.104;19.656;2024-02-15T03:12:18;153.70;2252.80
56123;DHT22;42426;46.104;19.656;2024-02-15T03:14:44;153.60;2252.80
56123;DHT22;42426;46.104;19.656;2024-02-15T03:17:11;153.70;2252.80
56123;DHT22;42426;46.104;19.656;2024-02-15T03:19:37;153.70;2252.80
56123;DHT22;42426;46.104;19.656;2024-02-15T03:22:02;153.70;2252.80
56123;DHT22;42426;46.104;19.656;2024-02-15T03:24:28;153.60;2252.80
56123;DHT22;42426;46.104;19.656;2024-02-15T03:26:54;153.60;2252.80
56123;DHT22;42426;46.104;19.656;2024-02-15T03:29:21;153.60;2252.80
56123;DHT22;42426;46.104;19.656;2024-02-15T03:31:48;153.60;2252.80
56123;DHT22;42426;46.104;19.656;2024-02-15T03:34:14;153.60;2252.80
56123;DHT22;42426;46.104;19.656;2024-02-15T03:36:41;153.70;2252.80
56123;DHT22;42426;46.104;19.656;2024-02-15T03:39:07;153.60;2252.80
56123;DHT22;42426;46.104;19.656;2024-02-15T03:41:33;153.60;2252.80
56123;DHT22;42426;46.104;19.656;2024-02-15T03:44:00;153.60;2252.80
56123;DHT22;42426;46.104;19.656;2024-02-15T03:46:26;153.60;2252.80
56123;DHT22;42426;46.104;19.656;2024-02-15T03:48:53;153.70;2252.80
56123;DHT22;42426;46.104;19.656;2024-02-15T03:51:19;153.60;2252.80
56123;DHT22;42426;46.104;19.656;2024-02-15T03:53:46;153.70;2252.80
56123;DHT22;42426;46.104;19.656;2024-02-15T03:56:13;153.70;2252.80
56123;DHT22;42426;46.104;19.656;2024-02-15T03:58:38;153.70;2252.80
56123;DHT22;42426;46.104;19.656;2024-02-15T04:01:05;153.60;2252.80
56123;DHT22;42426;46.104;19.656;2024-02-15T04:03:32;153.60;2252.80
56123;DHT22;42426;46.104;19.656;2024-02-15T04:05:59;153.60;2252.80
56123;DHT22;42426;46.104;19.656;2024-02-15T04:08:25;128.90;2252.80
56123;DHT22;42426;46.104;19.656;2024-02-15T04:10:52;153.60;2252.80
56123;DHT22;42426;46.104;19.656;2024-02-15T04:13:17;153.60;2252.80
56123;DHT22;42426;46.104;19.656;2024-02-15T04:15:43;153.70;2252.80
56123;DHT22;42426;46.104;19.656;2024-02-15T04:18:09;153.70;2252.80
56123;DHT22;42426;46.104;19.656;2024-02-15T04:20:36;153.60;2252.80
56123;DHT22;42426;46.104;19.656;2024-02-15T04:23:02;153.60;2252.80
56123;DHT22;42426;46.104;19.656;2024-02-15T04:25:28;153.70;2252.80
56123;DHT22;42426;46.104;19.656;2024-02-15T04:27:55;153.60;2252.80
56123;DHT22;42426;46.104;19.656;2024-02-15T04:30:23;153.70;2252.80
56123;DHT22;42426;46.104;19.656;2024-02-15T04:32:49;153.60;2252.80
56123;DHT22;42426;46.104;19.656;2024-02-15T04:35:15;153.60;2252.80
56123;DHT22;42426;46.104;19.656;2024-02-15T04:37:41;153.60;2252.80
56123;DHT22;42426;46.104;19.656;2024-02-15T04:40:07;153.60;2252.80
56123;DHT22;42426;46.104;19.656;2024-02-15T04:42:37;128.90;2252.80
56123;DHT22;42426;46.104;19.656;2024-02-15T04:45:06;153.60;2252.80
56123;DHT22;42426;46.104;19.656;2024-02-15T04:47:36;153.60;2252.80
56123;DHT22;42426;46.104;19.656;2024-02-15T04:50:03;153.60;2252.80
56123;DHT22;42426;46.104;19.656;2024-02-15T04:52:31;153.60;2252.80
56123;DHT22;42426;46.104;19.656;2024-02-15T04:54:57;153.60;2252.80
56123;DHT22;42426;46.104;19.656;2024-02-15T04:57:26;153.60;2252.80
56123;DHT22;42426;46.104;19.656;2024-02-15T04:59:54;128.90;2252.80
56123;DHT22;42426;46.104;19.656;2024-02-15T05:02:20;128.90;2252.80
56123;DHT22;42426;46.104;19.656;2024-02-15T05:04:47;128.90;2252.80
56123;DHT22;42426;46.104;19.656;2024-02-15T05:07:13;128.90;2252.80
56123;DHT22;42426;46.104;19.656;2024-02-15T05:09:42;128.90;2252.80
56123;DHT22;42426;46.104;19.656;2024-02-15T05:12:08;128.90;2252.80
56123;DHT22;42426;46.104;19.656;2024-02-15T05:14:34;128.90;2252.80
56123;DHT22;42426;46.104;19.656;2024-02-15T05:17:03;128.90;2252.80
56123;DHT22;42426;46.104;19.656;2024-02-15T05:19:29;128.90;2252.80
56123;DHT22;42426;46.104;19.656;2024-02-15T05:21:55;153.60;2252.80
56123;DHT22;42426;46.104;19.656;2024-02-15T05:24:22;153.60;2252.80
56123;DHT22;42426;46.104;19.656;2024-02-15T05:26:48;153.60;2252.80
56123;DHT22;42426;46.104;19.656;2024-02-15T05:29:18;153.60;2252.80
56123;DHT22;42426;46.104;19.656;2024-02-15T05:31:46;153.60;2252.80
56123;DHT22;42426;46.104;19.656;2024-02-15T05:34:12;153.60;2252.80
56123;DHT22;42426;46.104;19.656;2024-02-15T05:36:38;153.60;2252.80
56123;DHT22;42426;46.104;19.656;2024-02-15T05:39:04;153.60;2252.80
56123;DHT22;42426;46.104;19.656;2024-02-15T05:41:31;153.70;2252.80
56123;DHT22;42426;46.104;19.656;2024-02-15T05:43:58;153.70;2252.80
56123;DHT22;42426;46.104;19.656;2024-02-15T05:46:25;153.70;2252.80
56123;DHT22;42426;46.104;19.656;2024-02-15T05:48:50;153.70;2252.80
56123;DHT22;42426;46.104;19.656;2024-02-15T05:51:21;153.70;2252.80
56123;DHT22;42426;46.104;19.656;2024-02-15T05:53:47;153.70;2252.80
56123;DHT22;42426;46.104;19.656;2024-02-15T05:56:12;153.70;2252.80
56123;DHT22;42426;46.104;19.656;2024-02-15T05:58:40;153.70;2252.80
56123;DHT22;42426;46.104;19.656;2024-02-15T06:01:06;153.70;2252.80
56123;DHT22;42426;46.104;19.656;2024-02-15T06:03:34;153.70;2252.80
56123;DHT22;42426;46.104;19.656;2024-02-15T06:06:01;153.70;2252.80
56123;DHT22;42426;46.104;19.656;2024-02-15T06:08:32;153.80;2252.80
56123;DHT22;42426;46.104;19.656;2024-02-15T06:10:58;153.80;2252.80
56123;DHT22;42426;46.104;19.656;2024-02-15T06:13:26;153.80;2252.80
56123;DHT22;42426;46.104;19.656;2024-02-15T06:15:52;153.80;2252.80
56123;DHT22;42426;46.104;19.656;2024-02-15T06:18:20;153.90;2252.80
56123;DHT22;42426;46.104;19.656;2024-02-15T06:20:53;153.90;2252.80
56123;DHT22;42426;46.104;19.656;2024-02-15T06:23:23;153.90;2252.80
56123;DHT22;42426;46.104;19.656;2024-02-15T06:25:51;153.90;2252.80
56123;DHT22;42426;46.104;19.656;2024-02-15T06:28:21;153.90;2252.80
56123;DHT22;42426;46.104;19.656;2024-02-15T06:31:07;153.90;2252.80
56123;DHT22;42426;46.104;19.656;2024-02-15T06:33:52;153.90;2252.80
56123;DHT22;42426;46.104;19.656;2024-02-15T06:36:45;153.90;2252.80
56123;DHT22;42426;46.104;19.656;2024-02-15T06:39:30;154.00;2252.80
56123;DHT22;42426;46.104;19.656;2024-02-15T06:42:16;154.00;2252.80
56123;DHT22;42426;46.104;19.656;2024-02-15T06:44:46;154.10;2252.80
56123;DHT22;42426;46.104;19.656;2024-02-15T06:47:12;154.10;2252.80
56123;DHT22;42426;46.104;19.656;2024-02-15T06:49:39;154.10;2252.80
56123;DHT22;42426;46.104;19.656;2024-02-15T06:52:09;154.10;2252.80
56123;DHT22;42426;46.104;19.656;2024-02-15T06:54:39;154.20;2252.80
56123;DHT22;42426;46.104;19.656;2024-02-15T06:57:06;154.20;2252.80
56123;DHT22;42426;46.104;19.656;2024-02-15T06:59:32;154.20;2252.80
56123;DHT22;42426;46.104;19.656;2024-02-15T07:02:01;154.30;2252.80
56123;DHT22;42426;46.104;19.656;2024-02-15T07:04:30;154.30;2252.80
56123;DHT22;42426;46.104;19.656;2024-02-15T07:06:58;154.30;2252.80
56123;DHT22;42426;46.104;19.656;2024-02-15T07:09:25;154.40;2252.80
56123;DHT22;42426;46.104;19.656;2024-02-15T07:11:51;154.40;2252.80
56123;DHT22;42426;46.104;19.656;2024-02-15T07:14:17;154.50;2252.80
56123;DHT22;42426;46.104;19.656;2024-02-15T07:16:49;154.50;2252.80
56123;DHT22;42426;46.104;19.656;2024-02-15T07:19:16;154.50;2252.80
56123;DHT22;42426;46.104;19.656;2024-02-15T07:21:42;154.50;2252.80
56123;DHT22;42426;46.104;19.656;2024-02-15T07:24:09;179.20;2252.80
56123;DHT22;42426;46.104;19.656;2024-02-15T07:26:35;179.20;2252.80
56123;DHT22;42426;46.104;19.656;2024-02-15T07:29:02;179.30;2252.80
56123;DHT22;42426;46.104;19.656;2024-02-15T07:31:31;179.30;2252.80
56123;DHT22;42426;46.104;19.656;2024-02-15T07:33:59;179.30;2252.80
56123;DHT22;42426;46.104;19.656;2024-02-15T07:36:25;179.40;2252.80
56123;DHT22;42426;46.104;19.656;2024-02-15T07:38:53;179.40;2252.80
56123;DHT22;42426;46.104;19.656;2024-02-15T07:41:22;179.40;2252.80
56123;DHT22;42426;46.104;19.656;2024-02-15T07:43:48;179.50;2252.80
56123;DHT22;42426;46.104;19.656;2024-02-15T07:46:15;179.60;2252.80
56123;DHT22;42426;46.104;19.656;2024-02-15T07:48:42;179.60;2252.80
56123;DHT22;42426;46.104;19.656;2024-02-15T07:51:22;179.60;2252.80
56123;DHT22;42426;46.104;19.656;2024-02-15T07:53:49;179.70;2252.80
56123;DHT22;42426;46.104;19.656;2024-02-15T07:56:16;179.70;2252.80
56123;DHT22;42426;46.104;19.656;2024-02-15T07:58:44;179.80;2252.80
56123;DHT22;42426;46.104;19.656;2024-02-15T08:01:14;179.80;2252.80
56123;DHT22;42426;46.104;19.656;2024-02-15T08:03:40;179.80;2252.80
56123;DHT22;42426;46.104;19.656;2024-02-15T08:06:12;179.90;2252.80
56123;DHT22;42426;46.104;19.656;2024-02-15T08:08:47;179.90;2252.80
56123;DHT22;42426;46.104;19.656;2024-02-15T08:11:14;179.90;2252.80
56123;DHT22;42426;46.104;19.656;2024-02-15T08:13:50;180.00;2252.80
56123;DHT22;42426;46.104;19.656;2024-02-15T08:16:21;180.00;2252.80
56123;DHT22;42426;46.104;19.656;2024-02-15T08:18:51;180.10;2252.80
56123;DHT22;42426;46.104;19.656;2024-02-15T08:21:27;180.10;2252.80
56123;DHT22;42426;46.104;19.656;2024-02-15T08:23:55;204.80;2252.80
56123;DHT22;42426;46.104;19.656;2024-02-15T08:26:22;204.80;2252.80
56123;DHT22;42426;46.104;19.656;2024-02-15T08:28:47;204.90;2252.80
56123;DHT22;42426;46.104;19.656;2024-02-15T08:31:13;204.90;2252.80
56123;DHT22;42426;46.104;19.656;2024-02-15T08:33:41;204.90;2252.80
56123;DHT22;42426;46.104;19.656;2024-02-15T08:36:09;205.00;2252.80
56123;DHT22;42426;46.104;19.656;2024-02-15T08:38:36;205.00;2252.80
56123;DHT22;42426;46.104;19.656;2024-02-15T08:41:06;205.10;2252.80
56123;DHT22;42426;46.104;19.656;2024-02-15T08:43:34;205.10;2252.80
56123;DHT22;42426;46.104;19.656;2024-02-15T08:46:00;205.10;2252.80
56123;DHT22;42426;46.104;19.656;2024-02-15T08:48:26;205.20;2252.80
56123;DHT22;42426;46.104;19.656;2024-02-15T08:50:52;205.20;2252.80
56123;DHT22;42426;46.104;19.656;2024-02-15T08:53:18;205.20;2252.80
56123;DHT22;42426;46.104;19.656;2024-02-15T08:55:48;205.30;2252.80
56123;DHT22;42426;46.104;19.656;2024-02-15T08:58:14;205.30;2252.80
56123;DHT22;42426;46.104;19.656;2024-02-15T09:00:39;205.30;2252.80
56123;DHT22;42426;46.104;19.656;2024-02-15T09:03:13;205.40;2252.80
56123;DHT22;42426;46.104;19.656;2024-02-15T09:05:39;205.40;2252.80
56123;DHT22;42426;46.104;19.656;2024-02-15T09:08:06;205.40;2252.80
56123;DHT22;42426;46.104;19.656;2024-02-15T09:10:32;205.40;2252.80
56123;DHT22;42426;46.104;19.656;2024-02-15T09:12:58;205.50;2252.80
56123;DHT22;42426;46.104;19.656;2024-02-15T09:15:24;205.60;2252.80
56123;DHT22;42426;46.104;19.656;2024-02-15T09:17:51;205.60;2252.80
56123;DHT22;42426;46.104;19.656;2024-02-15T09:20:20;205.70;2252.80
56123;DHT22;42426;46.104;19.656;2024-02-15T09:22:52;205.70;2252.80
56123;DHT22;42426;46.104;19.656;2024-02-15T09:25:18;230.40;2252.80
56123;DHT22;42426;46.104;19.656;2024-02-15T09:27:45;230.40;2252.80
56123;DHT22;42426;46.104;19.656;2024-02-15T09:30:14;230.40;2252.80
56123;DHT22;42426;46.104;19.656;2024-02-15T09:32:41;230.60;2252.80
56123;DHT22;42426;46.104;19.656;2024-02-15T09:35:08;230.60;2252.80
56123;DHT22;42426;46.104;19.656;2024-02-15T09:37:35;230.70;2252.80
56123;DHT22;42426;46.104;19.656;2024-02-15T09:40:01;230.70;2252.80
56123;DHT22;42426;46.104;19.656;2024-02-15T09:42:32;230.70;2252.80
56123;DHT22;42426;46.104;19.656;2024-02-15T09:45:00;230.80;2252.80
56123;DHT22;42426;46.104;19.656;2024-02-15T09:47:34;230.90;2252.80
56123;DHT22;42426;46.104;19.656;2024-02-15T09:50:05;231.00;2252.80
56123;DHT22;42426;46.104;19.656;2024-02-15T09:52:32;231.00;2252.80
56123;DHT22;42426;46.104;19.656;2024-02-15T09:55:03;231.00;2252.80
56123;DHT22;42426;46.104;19.656;2024-02-15T09:57:29;231.10;2252.80
56123;DHT22;42426;46.104;19.656;2024-02-15T09:59:58;231.20;2252.80
56123;DHT22;42426;46.104;19.656;2024-02-15T10:02:27;231.30;2252.80
56123;DHT22;42426;46.104;19.656;2024-02-15T10:04:54;231.30;2252.80
56123;DHT22;42426;46.104;19.656;2024-02-15T10:07:25;231.30;2252.80
56123;DHT22;42426;46.104;19.656;2024-02-15T10:09:53;231.30;2252.80
56123;DHT22;42426;46.104;19.656;2024-02-15T10:12:19;256.00;2252.80
56123;DHT22;42426;46.104;19.656;2024-02-15T10:14:52;256.10;2252.80
56123;DHT22;42426;46.104;19.656;2024-02-15T10:17:19;256.10;2252.80
56123;DHT22;42426;46.104;19.656;2024-02-15T10:19:48;256.10;2252.80
56123;DHT22;42426;46.104;19.656;2024-02-15T10:22:27;256.20;2252.80
56123;DHT22;42426;46.104;19.656;2024-02-15T10:25:12;256.20;2252.80
56123;DHT22;42426;46.104;19.656;2024-02-15T10:27:42;256.30;2252.80
56123;DHT22;42426;46.104;19.656;2024-02-15T10:30:18;256.40;2252.80
56123;DHT22;42426;46.104;19.656;2024-02-15T10:32:45;256.40;2252.80
56123;DHT22;42426;46.104;19.656;2024-02-15T10:35:19;256.50;2252.80
56123;DHT22;42426;46.104;19.656;2024-02-15T10:37:45;256.50;2252.80
56123;DHT22;42426;46.104;19.656;2024-02-15T10:40:11;256.60;2252.80
56123;DHT22;42426;46.104;19.656;2024-02-15T10:42:41;256.70;2252.80
56123;DHT22;42426;46.104;19.656;2024-02-15T10:45:08;256.80;2252.80
56123;DHT22;42426;46.104;19.656;2024-02-15T10:47:37;256.80;2252.80
56123;DHT22;42426;46.104;19.656;2024-02-15T10:50:06;256.90;2252.80
56123;DHT22;42426;46.104;19.656;2024-02-15T10:52:35;281.60;2278.40
56123;DHT22;42426;46.104;19.656;2024-02-15T10:55:04;281.60;2278.40
56123;DHT22;42426;46.104;19.656;2024-02-15T10:57:37;281.70;2278.40
56123;DHT22;42426;46.104;19.656;2024-02-15T11:00:06;281.70;2278.40
56123;DHT22;42426;46.104;19.656;2024-02-15T11:02:42;281.70;2278.40
56123;DHT22;42426;46.104;19.656;2024-02-15T11:05:12;281.80;2278.40
56123;DHT22;42426;46.104;19.656;2024-02-15T11:07:43;281.90;2278.40
56123;DHT22;42426;46.104;19.656;2024-02-15T11:10:09;281.90;2278.40
56123;DHT22;42426;46.104;19.656;2024-02-15T11:12:37;281.90;2278.40
56123;DHT22;42426;46.104;19.656;2024-02-15T11:15:03;281.90;2278.40
56123;DHT22;42426;46.104;19.656;2024-02-15T11:17:50;281.90;2278.40
56123;DHT22;42426;46.104;19.656;2024-02-15T11:23:00;282.10;2278.40
56123;DHT22;42426;46.104;19.656;2024-02-15T11:30:52;282.30;2278.40
56123;DHT22;42426;46.104;19.656;2024-02-15T11:33:29;282.30;2278.40
56123;DHT22;42426;46.104;19.656;2024-02-15T11:36:11;282.40;2278.40
56123;DHT22;42426;46.104;19.656;2024-02-15T11:38:38;282.50;2278.40
56123;DHT22;42426;46.104;19.656;2024-02-15T11:41:09;282.50;2278.40
56123;DHT22;42426;46.104;19.656;2024-02-15T11:46:14;282.50;2278.40
56123;DHT22;42426;46.104;19.656;2024-02-15T11:48:41;307.20;2304.00
56123;DHT22;42426;46.104;19.656;2024-02-15T11:51:07;307.20;2304.00
56123;DHT22;42426;46.104;19.656;2024-02-15T11:53:34;307.30;2304.00
56123;DHT22;42426;46.104;19.656;2024-02-15T11:56:00;307.40;2304.00
56123;DHT22;42426;46.104;19.656;2024-02-15T11:58:27;307.40;2304.00
56123;DHT22;42426;46.104;19.656;2024-02-15T12:01:18;307.40;2304.00
56123;DHT22;42426;46.104;19.656;2024-02-15T12:04:03;307.50;2304.00
56123;DHT22;42426;46.104;19.656;2024-02-15T12:06:47;307.40;2304.00
56123;DHT22;42426;46.104;19.656;2024-02-15T12:09:31;307.50;2304.00
56123;DHT22;42426;46.104;19.656;2024-02-15T12:12:29;307.50;2304.00
56123;DHT22;42426;46.104;19.656;2024-02-15T12:15:14;307.50;2304.00
56123;DHT22;42426;46.104;19.656;2024-02-15T12:18:15;307.40;2304.00
56123;DHT22;42426;46.104;19.656;2024-02-15T12:21:00;307.40;2304.00
56123;DHT22;42426;46.104;19.656;2024-02-15T12:23:31;307.30;2304.00
56123;DHT22;42426;46.104;19.656;2024-02-15T12:26:00;307.40;2304.00
56123;DHT22;42426;46.104;19.656;2024-02-15T12:28:27;307.50;2304.00
56123;DHT22;42426;46.104;19.656;2024-02-15T12:30:56;307.50;2304.00
56123;DHT22;42426;46.104;19.656;2024-02-15T12:33:22;307.80;2304.00
56123;DHT22;42426;46.104;19.656;2024-02-15T12:35:50;307.50;2304.00
56123;DHT22;42426;46.104;19.656;2024-02-15T12:38:17;307.50;2304.00
56123;DHT22;42426;46.104;19.656;2024-02-15T12:40:44;307.50;2304.00
56123;DHT22;42426;46.104;19.656;2024-02-15T12:43:10;307.50;2304.00
56123;DHT22;42426;46.104;19.656;2024-02-15T12:45:41;307.50;2304.00
56123;DHT22;42426;46.104;19.656;2024-02-15T12:48:08;307.50;2304.00
56123;DHT22;42426;46.104;19.656;2024-02-15T12:50:35;307.50;2304.00
56123;DHT22;42426;46.104;19.656;2024-02-15T12:53:01;307.50;2304.00
56123;DHT22;42426;46.104;19.656;2024-02-15T12:55:32;307.60;2304.00
56123;DHT22;42426;46.104;19.656;2024-02-15T12:58:09;307.60;2304.00
56123;DHT22;42426;46.104;19.656;2024-02-15T13:00:39;307.60;2304.00
56123;DHT22;42426;46.104;19.656;2024-02-15T13:03:07;307.60;2304.00
56123;DHT22;42426;46.104;19.656;2024-02-15T13:05:37;307.60;2304.00
56123;DHT22;42426;46.104;19.656;2024-02-15T13:08:03;307.60;2304.00
56123;DHT22;42426;46.104;19.656;2024-02-15T13:10:31;307.60;2304.00
56123;DHT22;42426;46.104;19.656;2024-02-15T13:12:58;307.70;2304.00
56123;DHT22;42426;46.104;19.656;2024-02-15T13:15:24;307.70;2278.40
56123;DHT22;42426;46.104;19.656;2024-02-15T13:17:59;307.70;2304.00
56123;DHT22;42426;46.104;19.656;2024-02-15T13:20:26;307.70;2278.40
56123;DHT22;42426;46.104;19.656;2024-02-15T13:23:04;307.70;2227.20
56123;DHT22;42426;46.104;19.656;2024-02-15T13:25:42;307.80;2252.80
56123;DHT22;42426;46.104;19.656;2024-02-15T13:28:09;307.80;2252.80
56123;DHT22;42426;46.104;19.656;2024-02-15T13:30:36;307.70;2252.80
56123;DHT22;42426;46.104;19.656;2024-02-15T13:33:02;307.80;2227.20
56123;DHT22;42426;46.104;19.656;2024-02-15T13:35:28;307.90;2227.20
56123;DHT22;42426;46.104;19.656;2024-02-15T13:37:56;307.90;2227.20
56123;DHT22;42426;46.104;19.656;2024-02-15T13:40:26;307.90;2176.00
56123;DHT22;42426;46.104;19.656;2024-02-15T13:42:55;307.90;2201.60
56123;DHT22;42426;46.104;19.656;2024-02-15T13:45:26;307.80;2227.20
56123;DHT22;42426;46.104;19.656;2024-02-15T13:47:56;307.90;2227.20
56123;DHT22;42426;46.104;19.656;2024-02-15T13:50:22;307.90;2201.60
56123;DHT22;42426;46.104;19.656;2024-02-15T13:52:49;307.90;2201.60
56123;DHT22;42426;46.104;19.656;2024-02-15T13:55:17;307.80;2227.20
56123;DHT22;42426;46.104;19.656;2024-02-15T13:57:45;307.90;2150.40
56123;DHT22;42426;46.104;19.656;2024-02-15T14:00:15;307.90;2150.40
56123;DHT22;42426;46.104;19.656;2024-02-15T14:02:53;307.90;2176.00
56123;DHT22;42426;46.104;19.656;2024-02-15T14:05:22;307.90;2150.40
56123;DHT22;42426;46.104;19.656;2024-02-15T14:07:54;308.00;2176.00
56123;DHT22;42426;46.104;19.656;2024-02-15T14:10:24;308.00;2201.60
56123;DHT22;42426;46.104;19.656;2024-02-15T14:12:51;308.10;2176.00
56123;DHT22;42426;46.104;19.656;2024-02-15T14:15:18;308.10;2201.60
56123;DHT22;42426;46.104;19.656;2024-02-15T14:17:45;332.80;2201.60
56123;DHT22;42426;46.104;19.656;2024-02-15T14:20:11;332.80;2201.60
56123;DHT22;42426;46.104;19.656;2024-02-15T14:22:41;332.80;2176.00
56123;DHT22;42426;46.104;19.656;2024-02-15T14:25:08;332.80;2201.60
56123;DHT22;42426;46.104;19.656;2024-02-15T14:27:34;332.80;2176.00
56123;DHT22;42426;46.104;19.656;2024-02-15T14:30:00;332.90;2176.00
56123;DHT22;42426;46.104;19.656;2024-02-15T14:32:48;332.90;2201.60
56123;DHT22;42426;46.104;19.656;2024-02-15T14:35:27;332.90;2176.00
56123;DHT22;42426;46.104;19.656;2024-02-15T14:37:57;332.90;2176.00
56123;DHT22;42426;46.104;19.656;2024-02-15T14:40:23;332.90;2150.40
56123;DHT22;42426;46.104;19.656;2024-02-15T14:42:49;333.00;2124.80
56123;DHT22;42426;46.104;19.656;2024-02-15T14:45:15;333.10;2150.40
56123;DHT22;42426;46.104;19.656;2024-02-15T14:47:41;333.10;2124.80
56123;DHT22;42426;46.104;19.656;2024-02-15T14:50:09;333.10;2150.40
56123;DHT22;42426;46.104;19.656;2024-02-15T14:52:38;333.00;2150.40
56123;DHT22;42426;46.104;19.656;2024-02-15T14:55:07;333.00;2124.80